createdAt,value
2018-09-20T00:00:20.533Z,13.20
2018-09-20T00:00:58.564Z,13.53
2018-09-20T00:01:36.536Z,6.00
2018-09-20T00:02:14.504Z,27.90
2018-09-20T00:02:53.633Z,5.97
2018-09-20T00:03:31.529Z,6.12
2018-09-20T00:04:09.500Z,6.70
2018-09-20T00:05:32.420Z,6.08
2018-09-20T00:07:36.967Z,5.70
2018-09-20T00:08:14.969Z,7.30
2018-09-20T00:09:39.054Z,5.22
2018-09-20T00:11:00.828Z,5.97
2018-09-20T00:12:23.827Z,6.90
2018-09-20T00:13:02.384Z,5.70
2018-09-20T00:13:40.360Z,5.83
2018-09-20T00:14:19.038Z,5.53
2018-09-20T00:14:57.065Z,5.70
2018-09-20T00:15:35.172Z,5.70
2018-09-20T00:16:13.803Z,5.85
2018-09-20T00:16:52.109Z,6.03
2018-09-20T00:17:30.648Z,6.17
2018-09-20T00:18:09.308Z,6.22
2018-09-20T00:18:48.083Z,6.30
2018-09-20T00:19:26.147Z,6.00
2018-09-20T00:20:04.817Z,6.50
2018-09-20T00:20:42.840Z,6.00
2018-09-20T00:21:20.927Z,5.97
2018-09-20T00:22:00.439Z,5.53
2018-09-20T00:22:39.017Z,6.90
2018-09-20T00:23:17.112Z,6.30
2018-09-20T00:23:55.916Z,7.08
2018-09-20T00:24:33.987Z,6.50
2018-09-20T00:25:11.932Z,6.80
2018-09-20T00:25:50.088Z,5.97
2018-09-20T00:26:28.800Z,6.22
2018-09-20T00:27:07.680Z,6.90
2018-09-20T00:27:46.348Z,6.00
2018-09-20T00:28:24.466Z,5.80
2018-09-20T00:29:45.115Z,6.00
2018-09-20T00:30:23.543Z,6.20
2018-09-20T00:31:02.444Z,6.00
2018-09-20T00:31:41.087Z,6.13
2018-09-20T00:32:19.131Z,6.47
2018-09-20T00:32:57.950Z,6.42
2018-09-20T00:33:36.051Z,6.17
2018-09-20T00:34:14.691Z,6.90
2018-09-20T00:34:53.444Z,6.28
2018-09-20T00:35:32.166Z,6.37
2018-09-20T00:36:10.292Z,6.40
2018-09-20T00:36:50.240Z,6.28
2018-09-20T00:37:29.073Z,6.35
2018-09-20T00:38:07.774Z,7.08
2018-09-20T00:38:45.829Z,5.90
2018-09-20T00:39:24.451Z,6.70
2018-09-20T00:40:04.088Z,6.40
2018-09-20T00:40:42.074Z,6.47
2018-09-20T00:41:20.060Z,6.30
2018-09-20T00:41:58.819Z,6.78
2018-09-20T00:42:37.697Z,6.50
2018-09-20T00:43:15.725Z,7.83
2018-09-20T00:43:54.380Z,6.60
2018-09-20T00:44:33.110Z,7.15
2018-09-20T00:45:11.133Z,6.97
2018-09-20T00:45:49.224Z,6.75
2018-09-20T00:46:29.466Z,6.45
2018-09-20T00:47:10.964Z,6.67
2018-09-20T00:47:49.758Z,6.90
2018-09-20T00:48:28.491Z,6.50
2018-09-20T00:49:07.377Z,6.13
2018-09-20T00:49:46.061Z,6.62
2018-09-20T00:50:24.956Z,6.90
2018-09-20T00:51:04.727Z,7.45
2018-09-20T00:51:42.893Z,7.35
2018-09-20T00:52:22.322Z,6.87
2018-09-20T00:53:00.483Z,6.53
2018-09-20T00:53:39.331Z,6.85
2018-09-20T00:54:17.288Z,6.65
2018-09-20T00:54:57.249Z,6.55
2018-09-20T00:55:35.492Z,6.72
2018-09-20T00:56:13.621Z,7.15
2018-09-20T00:56:52.143Z,7.53
2018-09-20T00:57:30.939Z,7.08
2018-09-20T00:58:09.482Z,8.43
2018-09-20T00:58:47.998Z,7.65
2018-09-20T00:59:26.292Z,8.37
2018-09-20T01:00:05.839Z,7.75
2018-09-20T01:00:44.006Z,8.43
2018-09-20T01:01:22.536Z,8.33
2018-09-20T01:02:00.668Z,7.40
2018-09-20T01:02:39.235Z,8.23
2018-09-20T01:03:17.945Z,8.00
2018-09-20T01:03:56.192Z,7.92
2018-09-20T01:04:34.177Z,8.30
2018-09-20T01:05:12.201Z,8.05
2018-09-20T01:05:51.017Z,6.97
2018-09-20T01:06:29.082Z,7.97
2018-09-20T01:07:07.044Z,7.22
2018-09-20T01:07:45.859Z,7.40
2018-09-20T01:08:23.896Z,6.55
2018-09-20T01:09:02.008Z,7.90
2018-09-20T01:09:40.001Z,7.45
2018-09-20T01:10:17.945Z,7.85
2018-09-20T01:10:55.846Z,8.10
2018-09-20T01:11:34.009Z,7.70
2018-09-20T01:12:12.341Z,7.08
2018-09-20T01:12:50.412Z,8.05
2018-09-20T01:13:28.584Z,7.30
2018-09-20T01:14:06.864Z,8.13
2018-09-20T01:14:45.062Z,7.78
2018-09-20T01:15:27.158Z,7.50
2018-09-20T01:16:05.480Z,7.85
2018-09-20T01:16:44.016Z,7.07
2018-09-20T01:17:24.116Z,7.47
2018-09-20T01:18:02.398Z,7.85
2018-09-20T01:18:40.594Z,8.03
2018-09-20T01:19:18.717Z,8.08
2018-09-20T01:19:56.623Z,8.00
2018-09-20T01:20:34.810Z,8.30
2018-09-20T01:21:13.043Z,7.83
2018-09-20T01:21:52.349Z,7.70
2018-09-20T01:22:30.328Z,8.33
2018-09-20T01:23:08.375Z,8.48
2018-09-20T01:23:46.358Z,7.92
2018-09-20T01:24:24.489Z,8.98
2018-09-20T01:25:16.510Z,8.40
2018-09-20T01:25:54.453Z,8.58
2018-09-20T01:26:32.406Z,8.10
2018-09-20T01:27:10.437Z,8.50
2018-09-20T01:27:48.436Z,8.10
2018-09-20T01:28:26.373Z,54.73
2018-09-20T01:29:04.317Z,39.67
2018-09-20T01:29:42.304Z,10.15
2018-09-20T01:30:20.240Z,9.88
2018-09-20T01:30:58.204Z,8.95
2018-09-20T01:31:36.163Z,9.37
2018-09-20T01:32:14.153Z,9.13
2018-09-20T01:32:52.188Z,9.15
2018-09-20T01:33:30.313Z,9.50
2018-09-20T01:34:08.286Z,9.15
2018-09-20T01:34:46.280Z,9.98
2018-09-20T01:35:24.482Z,9.85
2018-09-20T01:36:02.580Z,10.00
2018-09-20T01:36:40.639Z,9.57
2018-09-20T01:37:18.728Z,9.80
2018-09-20T01:37:56.640Z,9.63
2018-09-20T01:38:34.612Z,9.08
2018-09-20T01:39:16.802Z,9.38
2018-09-20T01:39:56.669Z,9.93
2018-09-20T01:40:34.725Z,9.05
2018-09-20T01:41:12.551Z,9.90
2018-09-20T01:41:50.571Z,9.88
2018-09-20T01:42:28.689Z,9.28
2018-09-20T01:43:07.550Z,9.45
2018-09-20T01:43:45.618Z,10.15
2018-09-20T01:44:23.619Z,9.25
2018-09-20T01:45:01.627Z,10.30
2018-09-20T01:45:39.628Z,9.35
2018-09-20T01:46:17.680Z,10.55
2018-09-20T01:46:55.722Z,9.80
2018-09-20T01:47:33.715Z,10.00
2018-09-20T01:48:11.680Z,11.00
2018-09-20T01:48:49.635Z,10.40
2018-09-20T01:49:27.640Z,9.73
2018-09-20T01:50:06.769Z,9.40
2018-09-20T01:50:44.784Z,10.60
2018-09-20T01:51:22.825Z,9.88
2018-09-20T01:52:00.799Z,9.67
2018-09-20T01:52:38.861Z,9.70
2018-09-20T01:53:16.824Z,9.45
2018-09-20T01:53:54.780Z,10.65
2018-09-20T01:54:33.254Z,10.40
2018-09-20T01:55:11.285Z,9.47
2018-09-20T01:55:49.999Z,10.17
2018-09-20T01:56:28.682Z,10.07
2018-09-20T01:57:07.396Z,9.13
2018-09-20T01:57:45.485Z,10.33
2018-09-20T01:58:24.140Z,9.07
2018-09-20T01:59:02.893Z,9.43
2018-09-20T01:59:41.843Z,10.07
2018-09-20T02:00:20.723Z,9.60
2018-09-20T02:00:59.432Z,9.90
2018-09-20T02:01:38.019Z,9.73
2018-09-20T02:02:17.081Z,9.70
2018-09-20T02:02:55.637Z,10.30
2018-09-20T02:03:34.349Z,11.40
2018-09-20T02:04:12.335Z,10.58
2018-09-20T02:04:51.195Z,10.93
2018-09-20T02:05:30.804Z,10.63
2018-09-20T02:06:10.635Z,11.05
2018-09-20T02:06:49.361Z,10.78
2018-09-20T02:07:27.327Z,10.85
2018-09-20T02:08:05.429Z,10.45
2018-09-20T02:08:44.040Z,11.40
2018-09-20T02:09:22.559Z,10.80
2018-09-20T02:10:00.668Z,11.50
2018-09-20T02:10:39.402Z,10.80
2018-09-20T02:11:17.954Z,10.60
2018-09-20T02:11:55.940Z,11.70
2018-09-20T02:12:34.981Z,11.78
2018-09-20T02:13:13.977Z,11.20
2018-09-20T02:13:51.991Z,11.68
2018-09-20T02:14:30.049Z,11.22
2018-09-20T02:15:08.129Z,12.30
2018-09-20T02:15:46.130Z,13.07
2018-09-20T02:16:24.177Z,12.87
2018-09-20T02:17:02.307Z,11.87
2018-09-20T02:17:40.580Z,12.50
2018-09-20T02:18:19.493Z,12.55
2018-09-20T02:18:57.531Z,11.60
2018-09-20T02:19:35.527Z,13.90
2018-09-20T02:20:13.709Z,14.87
2018-09-20T02:20:51.752Z,16.25
2018-09-20T02:21:29.813Z,14.67
2018-09-20T02:22:08.905Z,13.43
2018-09-20T02:22:46.903Z,14.80
2018-09-20T02:23:24.870Z,16.55
2018-09-20T02:24:02.779Z,15.60
2018-09-20T02:24:41.373Z,14.07
2018-09-20T02:25:21.575Z,16.63
2018-09-20T02:26:01.593Z,17.20
2018-09-20T02:26:39.612Z,16.73
2018-09-20T02:27:19.356Z,16.17
2018-09-20T02:27:57.444Z,15.43
2018-09-20T02:28:36.130Z,16.07
2018-09-20T02:29:16.059Z,16.10
2018-09-20T02:29:54.122Z,16.55
2018-09-20T02:30:35.387Z,17.10
2018-09-20T02:31:15.872Z,17.53
2018-09-20T02:31:55.565Z,18.30
2018-09-20T02:32:34.423Z,17.82
2018-09-20T02:33:12.688Z,17.47
2018-09-20T02:33:51.347Z,19.32
2018-09-20T02:34:32.037Z,18.20
2018-09-20T02:35:10.144Z,17.73
2018-09-20T02:35:48.608Z,19.77
2018-09-20T02:36:26.767Z,18.98
2018-09-20T02:37:05.446Z,18.10
2018-09-20T02:37:43.425Z,17.98
2018-09-20T02:38:21.388Z,17.65
2018-09-20T02:38:59.544Z,18.20
2018-09-20T02:39:37.546Z,18.10
2018-09-20T02:40:16.581Z,17.53
2018-09-20T02:40:55.146Z,18.43
2018-09-20T02:41:33.192Z,19.05
2018-09-20T02:42:11.763Z,18.77
2018-09-20T02:42:50.412Z,21.33
2018-09-20T02:43:29.442Z,19.77
2018-09-20T02:44:07.632Z,17.90
2018-09-20T02:44:45.674Z,19.20
2018-09-20T02:45:25.382Z,20.75
2018-09-20T02:46:03.469Z,19.10
2018-09-20T02:46:41.479Z,18.73
2018-09-20T02:47:20.176Z,19.30
2018-09-20T02:47:58.236Z,20.90
2018-09-20T02:48:37.713Z,20.53
2018-09-20T02:49:16.422Z,20.25
2018-09-20T02:49:54.910Z,19.27
2018-09-20T02:50:33.108Z,19.90
2018-09-20T02:51:11.079Z,19.00
2018-09-20T02:51:49.213Z,19.73
2018-09-20T02:52:27.240Z,18.45
2018-09-20T02:53:05.193Z,18.52
2018-09-20T02:53:43.301Z,18.53
2018-09-20T02:54:21.220Z,17.70
2018-09-20T02:54:59.226Z,17.10
2018-09-20T02:55:37.186Z,18.13
2018-09-20T02:56:16.124Z,18.60
2018-09-20T02:56:54.032Z,17.57
2018-09-20T02:57:34.666Z,19.25
2018-09-20T02:58:12.680Z,20.12
2018-09-20T02:58:50.835Z,20.27
2018-09-20T02:59:28.858Z,23.20
2018-09-20T03:00:06.777Z,21.77
2018-09-20T03:00:44.967Z,21.63
2018-09-20T03:01:22.971Z,22.35
2018-09-20T03:02:01.046Z,21.20
2018-09-20T03:02:38.986Z,22.00
2018-09-20T03:03:17.060Z,20.70
2018-09-20T03:03:55.228Z,20.65
2018-09-20T03:04:33.242Z,20.90
2018-09-20T03:05:11.571Z,23.03
2018-09-20T03:05:49.596Z,21.23
2018-09-20T03:06:27.812Z,22.82
2018-09-20T03:07:05.738Z,22.02
2018-09-20T03:07:43.744Z,20.75
2018-09-20T03:08:21.751Z,22.25
2018-09-20T03:08:59.737Z,22.73
2018-09-20T03:09:37.788Z,24.00
2018-09-20T03:10:17.357Z,22.67
2018-09-20T03:10:55.340Z,24.70
2018-09-20T03:11:37.411Z,24.52
2018-09-20T03:12:16.311Z,23.70
2018-09-20T03:12:58.113Z,24.57
2018-09-20T03:13:36.294Z,24.07
2018-09-20T03:14:14.299Z,23.30
2018-09-20T03:14:52.966Z,20.68
2018-09-20T03:15:32.696Z,23.37
2018-09-20T03:16:12.555Z,24.10
2018-09-20T03:16:51.674Z,22.40
2018-09-20T03:17:29.732Z,21.57
2018-09-20T03:18:07.843Z,22.67
2018-09-20T03:18:47.660Z,25.55
2018-09-20T03:19:27.096Z,24.52
2018-09-20T03:20:05.501Z,26.52
2018-09-20T03:20:44.298Z,27.00
2018-09-20T03:21:23.138Z,25.65
2018-09-20T03:22:01.136Z,28.38
2018-09-20T03:23:24.231Z,25.88
2018-09-20T03:24:02.336Z,26.00
2018-09-20T03:24:40.301Z,25.97
2018-09-20T03:25:18.428Z,27.40
2018-09-20T03:25:56.567Z,26.97
2018-09-20T03:26:35.568Z,28.02
2018-09-20T03:27:14.440Z,26.12
2018-09-20T03:27:52.456Z,27.97
2018-09-20T03:28:30.365Z,27.10
2018-09-20T03:29:08.783Z,28.40
2018-09-20T03:29:47.389Z,32.00
2018-09-20T03:30:27.192Z,29.90
2018-09-20T03:31:05.495Z,29.90
2018-09-20T03:31:44.092Z,29.47
2018-09-20T03:32:22.166Z,27.77
2018-09-20T03:33:00.765Z,28.67
2018-09-20T03:33:38.771Z,28.20
2018-09-20T03:34:16.743Z,30.68
2018-09-20T03:34:54.816Z,33.53
2018-09-20T03:35:34.701Z,30.83
2018-09-20T03:36:13.875Z,30.20
2018-09-20T03:36:51.789Z,32.93
2018-09-20T03:37:30.500Z,29.93
2018-09-20T03:38:09.256Z,30.80
2018-09-20T03:38:47.825Z,31.37
2018-09-20T03:39:26.889Z,29.20
2018-09-20T03:40:05.935Z,30.83
2018-09-20T03:40:44.850Z,32.40
2018-09-20T03:41:23.388Z,31.62
2018-09-20T03:42:01.427Z,31.00
2018-09-20T03:42:39.496Z,33.00
2018-09-20T03:43:17.664Z,31.37
2018-09-20T03:43:57.438Z,32.13
2018-09-20T03:44:36.201Z,31.60
2018-09-20T03:45:14.978Z,30.63
2018-09-20T03:45:53.131Z,33.13
2018-09-20T03:46:31.189Z,31.80
2018-09-20T03:47:09.821Z,32.40
2018-09-20T03:47:47.940Z,30.07
2018-09-20T03:48:26.116Z,30.40
2018-09-20T03:49:04.332Z,32.67
2018-09-20T03:49:42.461Z,30.52
2018-09-20T03:50:21.007Z,30.70
2018-09-20T03:51:00.936Z,35.10
2018-09-20T03:51:39.649Z,31.70
2018-09-20T03:52:18.301Z,35.93
2018-09-20T03:52:59.934Z,32.77
2018-09-20T03:53:38.094Z,33.48
2018-09-20T03:54:17.787Z,34.53
2018-09-20T03:54:56.180Z,36.37
2018-09-20T03:55:34.682Z,37.63
2018-09-20T03:56:13.291Z,34.37
2018-09-20T03:56:51.255Z,34.07
2018-09-20T03:57:29.117Z,31.63
2018-09-20T03:58:07.460Z,34.67
2018-09-20T03:58:45.434Z,33.30
2018-09-20T03:59:23.521Z,32.80
2018-09-20T04:00:01.592Z,32.20
2018-09-20T04:00:39.525Z,30.37
2018-09-20T04:01:17.537Z,31.60
2018-09-20T04:01:55.805Z,30.50
2018-09-20T04:02:33.828Z,29.93
2018-09-20T04:03:11.874Z,31.30
2018-09-20T04:03:49.837Z,40.12
2018-09-20T04:04:27.788Z,42.03
2018-09-20T04:05:06.299Z,42.53
2018-09-20T04:05:45.196Z,39.77
2018-09-20T04:06:23.967Z,40.60
2018-09-20T04:07:02.507Z,38.77
2018-09-20T04:07:40.939Z,37.93
2018-09-20T04:08:19.542Z,38.80
2018-09-20T04:08:58.090Z,36.85
2018-09-20T04:09:36.313Z,37.57
2018-09-20T04:10:15.170Z,35.50
2018-09-20T04:10:53.705Z,37.70
2018-09-20T04:11:32.215Z,40.17
2018-09-20T04:12:10.757Z,38.13
2018-09-20T04:12:48.924Z,41.17
2018-09-20T04:13:26.836Z,40.03
2018-09-20T04:14:05.632Z,39.70
2018-09-20T04:14:43.790Z,40.40
2018-09-20T04:15:21.885Z,41.87
2018-09-20T04:16:00.371Z,39.33
2018-09-20T04:16:39.138Z,37.07
2018-09-20T04:17:17.793Z,38.00
2018-09-20T04:17:55.927Z,36.58
2018-09-20T04:18:34.022Z,35.63
2018-09-20T04:19:13.020Z,38.23
2018-09-20T04:19:51.110Z,35.60
2018-09-20T04:20:29.209Z,39.37
2018-09-20T04:21:07.325Z,35.90
2018-09-20T04:21:45.204Z,36.17
2018-09-20T04:22:23.197Z,37.90
2018-09-20T04:23:01.282Z,39.47
2018-09-20T04:23:39.180Z,35.40
2018-09-20T04:24:20.181Z,36.10
2018-09-20T04:24:58.197Z,36.70
2018-09-20T04:25:37.460Z,37.07
2018-09-20T04:26:16.379Z,36.40
2018-09-20T04:26:54.441Z,38.20
2018-09-20T04:27:33.212Z,37.87
2018-09-20T04:28:11.178Z,37.90
2018-09-20T04:28:49.337Z,36.93
2018-09-20T04:29:27.313Z,35.77
2018-09-20T04:30:05.353Z,36.17
2018-09-20T04:30:43.225Z,34.50
2018-09-20T04:31:21.212Z,35.70
2018-09-20T04:31:59.866Z,35.60
2018-09-20T04:32:38.612Z,35.30
2018-09-20T04:33:16.719Z,38.00
2018-09-20T04:33:54.765Z,38.17
2018-09-20T04:34:32.740Z,39.13
2018-09-20T04:35:10.800Z,39.07
2018-09-20T04:35:48.935Z,39.30
2018-09-20T04:36:27.147Z,37.97
2018-09-20T04:37:05.084Z,38.80
2018-09-20T04:37:43.536Z,40.50
2018-09-20T04:38:21.457Z,38.80
2018-09-20T04:38:59.415Z,38.70
2018-09-20T04:39:37.580Z,35.97
2018-09-20T04:40:16.523Z,37.00
2018-09-20T04:40:54.517Z,34.80
2018-09-20T04:41:32.475Z,33.10
2018-09-20T04:42:10.608Z,32.23
2018-09-20T04:42:48.517Z,34.50
2018-09-20T04:43:26.708Z,34.30
2018-09-20T04:44:04.737Z,35.07
2018-09-20T04:44:42.723Z,32.20
2018-09-20T04:45:20.735Z,34.53
2018-09-20T04:45:58.709Z,35.43
2018-09-20T04:46:36.636Z,31.80
2018-09-20T04:47:14.688Z,30.68
2018-09-20T04:47:52.621Z,32.33
2018-09-20T04:48:30.644Z,29.60
2018-09-20T04:49:08.825Z,28.97
2018-09-20T04:49:46.864Z,31.13
2018-09-20T04:50:24.833Z,26.80
2018-09-20T04:51:02.832Z,29.07
2018-09-20T04:51:40.880Z,25.60
2018-09-20T04:52:18.860Z,28.10
2018-09-20T04:52:56.844Z,24.60
2018-09-20T04:53:34.882Z,27.30
2018-09-20T04:54:12.890Z,27.80
2018-09-20T04:54:50.837Z,29.07
2018-09-20T04:55:28.844Z,22.83
2018-09-20T04:56:06.924Z,22.73
2018-09-20T04:56:44.895Z,20.70
2018-09-20T04:57:22.981Z,21.60
2018-09-20T04:58:00.909Z,22.37
2018-09-20T04:58:38.878Z,19.33
2018-09-20T04:59:17.604Z,20.00
2018-09-20T04:59:55.690Z,18.97
2018-09-20T05:00:33.684Z,19.40
2018-09-20T05:01:12.036Z,18.23
2018-09-20T05:01:49.997Z,19.27
2018-09-20T05:02:29.568Z,21.20
2018-09-20T05:03:07.536Z,18.17
2018-09-20T05:03:45.460Z,19.03
2018-09-20T05:04:23.545Z,19.83
2018-09-20T05:05:01.608Z,19.13
2018-09-20T05:05:39.510Z,20.50
2018-09-20T05:06:17.501Z,18.17
2018-09-20T05:06:55.484Z,18.17
2018-09-20T05:07:33.348Z,17.73
2018-09-20T05:08:11.425Z,15.97
2018-09-20T05:08:49.448Z,17.43
2018-09-20T05:09:27.984Z,17.53
2018-09-20T05:10:06.532Z,17.60
2018-09-20T05:10:44.672Z,17.00
2018-09-20T05:11:24.399Z,15.70
2018-09-20T05:12:02.429Z,17.33
2018-09-20T05:12:40.444Z,15.80
2018-09-20T05:13:18.867Z,16.43
2018-09-20T05:13:56.800Z,16.43
2018-09-20T05:14:34.775Z,17.53
2018-09-20T05:15:12.715Z,16.50
2018-09-20T05:15:50.736Z,17.60
2018-09-20T05:16:28.702Z,15.93
2018-09-20T05:17:06.654Z,17.90
2018-09-20T05:17:44.529Z,16.07
2018-09-20T05:18:22.416Z,16.97
2018-09-20T05:19:00.500Z,17.23
2018-09-20T05:19:39.538Z,16.50
2018-09-20T05:20:17.521Z,16.50
2018-09-20T05:20:55.591Z,15.30
2018-09-20T05:21:33.588Z,16.40
2018-09-20T05:22:11.648Z,16.20
2018-09-20T05:22:49.525Z,14.87
2018-09-20T05:23:27.605Z,15.83
2018-09-20T05:24:05.838Z,14.33
2018-09-20T05:24:43.766Z,14.70
2018-09-20T05:25:21.801Z,14.83
2018-09-20T05:25:59.801Z,15.00
2018-09-20T05:26:37.826Z,14.40
2018-09-20T05:27:15.790Z,15.33
2018-09-20T05:27:55.627Z,15.00
2018-09-20T05:28:33.625Z,14.17
2018-09-20T05:29:11.575Z,15.03
2018-09-20T05:29:49.519Z,14.50
2018-09-20T05:30:27.449Z,14.53
2018-09-20T05:31:05.851Z,14.30
2018-09-20T05:31:43.809Z,16.47
2018-09-20T05:32:21.904Z,14.67
2018-09-20T05:32:59.825Z,14.33
2018-09-20T05:33:38.756Z,13.10
2018-09-20T05:34:16.824Z,13.23
2018-09-20T05:34:54.864Z,14.07
2018-09-20T05:35:32.903Z,13.17
2018-09-20T05:36:11.061Z,13.10
2018-09-20T05:36:49.594Z,13.23
2018-09-20T05:37:27.744Z,13.47
2018-09-20T05:38:05.876Z,13.10
2018-09-20T05:38:43.960Z,15.00
2018-09-20T05:39:21.985Z,13.60
2018-09-20T05:40:00.694Z,13.00
2018-09-20T05:40:38.680Z,13.00
2018-09-20T05:41:16.801Z,11.97
2018-09-20T05:41:54.775Z,11.77
2018-09-20T05:42:32.735Z,11.40
2018-09-20T05:43:10.724Z,12.80
2018-09-20T05:43:48.971Z,13.10
2018-09-20T05:44:27.045Z,11.70
2018-09-20T05:45:05.037Z,12.40
2018-09-20T05:45:43.032Z,11.17
2018-09-20T05:46:21.004Z,11.60
2018-09-20T05:46:58.991Z,11.53
2018-09-20T05:47:36.909Z,12.43
2018-09-20T05:48:14.989Z,11.13
2018-09-20T05:48:52.929Z,10.80
2018-09-20T05:49:30.982Z,11.10
2018-09-20T05:50:09.133Z,10.17
2018-09-20T05:50:47.377Z,9.47
2018-09-20T05:51:25.482Z,10.17
2018-09-20T05:52:03.509Z,10.10
2018-09-20T05:52:41.587Z,10.03
2018-09-20T05:53:19.525Z,10.73
2018-09-20T05:53:57.657Z,11.27
2018-09-20T05:54:35.829Z,11.07
2018-09-20T05:55:13.852Z,11.00
2018-09-20T05:55:51.823Z,10.13
2018-09-20T05:56:29.954Z,10.40
2018-09-20T05:57:07.853Z,10.47
2018-09-20T05:57:45.852Z,10.40
2018-09-20T05:58:23.839Z,10.17
2018-09-20T05:59:01.845Z,9.90
2018-09-20T05:59:39.834Z,10.13
2018-09-20T06:00:18.226Z,9.20
2018-09-20T06:00:56.271Z,10.07
2018-09-20T06:01:34.217Z,8.40
2018-09-20T06:02:12.192Z,9.70
2018-09-20T06:02:50.140Z,8.47
2018-09-20T06:03:28.144Z,8.70
2018-09-20T06:04:06.181Z,8.60
2018-09-20T06:04:44.199Z,9.13
2018-09-20T06:05:22.181Z,8.20
2018-09-20T06:06:00.630Z,8.47
2018-09-20T06:06:38.625Z,8.53
2018-09-20T06:07:17.887Z,9.00
2018-09-20T06:07:55.867Z,8.90
2018-09-20T06:08:33.873Z,8.20
2018-09-20T06:09:12.616Z,8.30
2018-09-20T06:09:50.592Z,9.70
2018-09-20T06:10:28.654Z,9.10
2018-09-20T06:11:06.578Z,8.60
2018-09-20T06:11:44.804Z,6.03
2018-09-20T06:12:22.869Z,6.67
2018-09-20T06:13:00.746Z,5.90
2018-09-20T06:13:38.701Z,6.40
2018-09-20T06:14:16.641Z,5.30
2018-09-20T06:14:54.690Z,6.03
2018-09-20T06:15:32.838Z,6.33
2018-09-20T06:16:10.908Z,6.60
2018-09-20T06:16:48.825Z,6.63
2018-09-20T06:17:27.130Z,6.10
2018-09-20T06:18:05.082Z,6.33
2018-09-20T06:18:43.045Z,6.40
2018-09-20T06:19:21.003Z,6.83
2018-09-20T06:19:59.179Z,5.50
2018-09-20T06:20:37.233Z,5.30
2018-09-20T06:21:15.167Z,6.00
2018-09-20T06:21:53.294Z,5.30
2018-09-20T06:22:31.312Z,5.70
2018-09-20T06:23:09.261Z,5.27
2018-09-20T06:23:47.214Z,5.97
2018-09-20T06:24:25.525Z,5.17
2018-09-20T06:25:03.427Z,5.63
2018-09-20T06:25:41.452Z,5.60
2018-09-20T06:26:19.488Z,5.20
2018-09-20T06:26:57.488Z,5.00
2018-09-20T06:27:35.615Z,4.83
2018-09-20T06:28:13.677Z,4.70
2018-09-20T06:28:55.905Z,5.23
2018-09-20T06:30:16.768Z,4.95
2018-09-20T06:30:55.373Z,5.20
2018-09-20T06:31:33.556Z,4.60
2018-09-20T06:32:13.585Z,5.40
2018-09-20T06:32:52.018Z,4.87
2018-09-20T06:33:33.904Z,4.50
2018-09-20T06:34:13.435Z,4.60
2018-09-20T06:34:53.133Z,4.40
2018-09-20T06:35:33.391Z,4.87
2018-09-20T06:36:11.448Z,4.70
2018-09-20T06:36:49.483Z,4.60
2018-09-20T06:37:27.445Z,4.67
2018-09-20T06:38:05.502Z,4.83
2018-09-20T06:38:43.386Z,4.80
2018-09-20T06:39:21.946Z,4.60
2018-09-20T06:40:00.460Z,4.70
2018-09-20T06:40:38.472Z,4.53
2018-09-20T06:41:16.441Z,4.70
2018-09-20T06:41:54.467Z,4.70
2018-09-20T06:42:33.105Z,5.83
2018-09-20T06:43:11.079Z,4.70
2018-09-20T06:43:49.126Z,4.80
2018-09-20T06:44:27.736Z,4.83
2018-09-20T06:45:05.802Z,5.00
2018-09-20T06:45:43.928Z,4.90
2018-09-20T06:46:22.571Z,4.13
2018-09-20T06:47:00.977Z,4.20
2018-09-20T06:47:38.990Z,4.47
2018-09-20T06:48:17.196Z,4.17
2018-09-20T06:48:55.148Z,4.30
2018-09-20T06:49:33.839Z,4.53
2018-09-20T06:50:11.792Z,4.40
2018-09-20T06:50:49.764Z,4.10
2018-09-20T06:51:27.668Z,4.60
2018-09-20T06:52:05.592Z,4.43
2018-09-20T06:52:43.585Z,4.80
2018-09-20T06:53:21.598Z,4.87
2018-09-20T06:53:59.728Z,4.80
2018-09-20T06:54:38.465Z,4.60
2018-09-20T06:55:16.712Z,3.97
2018-09-20T06:55:54.839Z,5.47
2018-09-20T06:56:33.911Z,4.30
2018-09-20T06:57:11.981Z,4.57
2018-09-20T06:57:50.888Z,4.40
2018-09-20T06:58:28.730Z,4.73
2018-09-20T06:59:06.824Z,4.83
2018-09-20T06:59:44.941Z,4.27
2018-09-20T07:00:22.962Z,4.40
2018-09-20T07:01:01.096Z,4.13
2018-09-20T07:01:38.974Z,4.17
2018-09-20T07:02:16.968Z,4.70
2018-09-20T07:02:54.959Z,4.80
2018-09-20T07:03:33.040Z,4.77
2018-09-20T07:04:11.091Z,4.73
2018-09-20T07:04:48.937Z,5.00
2018-09-20T07:05:26.962Z,4.27
2018-09-20T07:06:04.985Z,4.50
2018-09-20T07:06:44.269Z,4.20
2018-09-20T07:07:23.140Z,4.67
2018-09-20T07:08:01.338Z,4.30
2018-09-20T07:08:39.265Z,5.00
2018-09-20T07:09:17.307Z,4.10
2018-09-20T07:09:55.388Z,4.57
2018-09-20T07:10:33.429Z,4.30
2018-09-20T07:11:11.420Z,4.27
2018-09-20T07:11:49.325Z,3.77
2018-09-20T07:12:27.483Z,3.80
2018-09-20T07:13:05.436Z,4.03
2018-09-20T07:13:44.544Z,4.37
2018-09-20T07:14:22.580Z,3.70
2018-09-20T07:15:00.787Z,4.20
2018-09-20T07:15:38.901Z,4.50
2018-09-20T07:16:17.054Z,4.65
2018-09-20T07:16:54.978Z,4.30
2018-09-20T07:17:32.976Z,4.33
2018-09-20T07:18:10.962Z,3.47
2018-09-20T07:18:49.074Z,3.90
2018-09-20T07:19:26.980Z,4.13
2018-09-20T07:20:04.973Z,3.80
2018-09-20T07:20:42.950Z,4.60
2018-09-20T07:21:20.947Z,4.13
2018-09-20T07:21:58.925Z,4.00
2018-09-20T07:22:36.911Z,4.30
2018-09-20T07:23:14.881Z,4.07
2018-09-20T07:23:52.841Z,3.77
2018-09-20T07:24:30.819Z,4.40
2018-09-20T07:25:08.817Z,3.47
2018-09-20T07:25:46.893Z,3.77
2018-09-20T07:26:24.807Z,3.70
2018-09-20T07:27:02.846Z,3.40
2018-09-20T07:27:40.823Z,3.37
2018-09-20T07:28:18.794Z,4.20
2018-09-20T07:28:56.793Z,3.50
2018-09-20T07:29:34.885Z,3.70
2018-09-20T07:30:12.860Z,3.60
2018-09-20T07:30:50.748Z,3.87
2018-09-20T07:31:28.715Z,3.30
2018-09-20T07:32:06.725Z,4.00
2018-09-20T07:32:44.762Z,3.23
2018-09-20T07:33:22.969Z,3.27
2018-09-20T07:34:00.900Z,3.50
2018-09-20T07:34:38.804Z,3.27
2018-09-20T07:35:16.749Z,3.20
2018-09-20T07:35:54.767Z,3.10
2018-09-20T07:36:32.837Z,2.60
2018-09-20T07:37:10.811Z,3.63
2018-09-20T07:37:48.817Z,3.37
2018-09-20T07:38:26.741Z,3.27
2018-09-20T07:39:05.146Z,3.87
2018-09-20T07:39:43.125Z,3.80
2018-09-20T07:40:21.053Z,3.40
2018-09-20T07:41:00.201Z,3.10
2018-09-20T07:41:38.331Z,3.77
2018-09-20T07:42:16.504Z,3.10
2018-09-20T07:42:54.765Z,3.17
2018-09-20T07:43:32.754Z,3.30
2018-09-20T07:44:11.054Z,3.27
2018-09-20T07:44:49.013Z,2.97
2018-09-20T07:45:26.972Z,3.33
2018-09-20T07:46:05.028Z,3.40
2018-09-20T07:46:44.141Z,2.83
2018-09-20T07:47:22.028Z,3.20
2018-09-20T07:47:59.897Z,2.83
2018-09-20T07:48:37.889Z,3.13
2018-09-20T07:49:15.941Z,2.77
2018-09-20T07:49:53.948Z,2.97
2018-09-20T07:50:32.041Z,2.87
2018-09-20T07:51:10.132Z,2.90
2018-09-20T07:51:48.175Z,3.20
2018-09-20T07:52:26.270Z,3.07
2018-09-20T07:53:05.549Z,3.00
2018-09-20T07:53:44.791Z,3.27
2018-09-20T07:54:22.908Z,2.80
2018-09-20T07:55:00.953Z,2.67
2018-09-20T07:55:41.869Z,3.40
2018-09-20T07:56:21.017Z,2.83
2018-09-20T07:56:59.102Z,3.10
2018-09-20T07:57:37.109Z,3.10
2018-09-20T07:58:16.968Z,2.77
2018-09-20T07:58:55.044Z,2.77
2018-09-20T07:59:32.968Z,2.57
2018-09-20T08:00:53.145Z,2.80
2018-09-20T08:01:31.012Z,2.80
2018-09-20T08:02:09.186Z,2.53
2018-09-20T08:02:48.113Z,2.93
2018-09-20T08:03:26.218Z,2.73
2018-09-20T08:04:04.943Z,2.80
2018-09-20T08:04:45.940Z,3.30
2018-09-20T08:05:24.124Z,3.10
2018-09-20T08:06:02.210Z,2.30
2018-09-20T08:06:40.357Z,2.67
2018-09-20T08:07:18.439Z,2.70
2018-09-20T08:07:56.364Z,2.93
2018-09-20T08:08:34.437Z,2.43
2018-09-20T08:09:14.595Z,2.80
2018-09-20T08:09:53.495Z,2.93
2018-09-20T08:10:31.460Z,2.87
2018-09-20T08:11:09.431Z,2.60
2018-09-20T08:11:47.410Z,2.60
2018-09-20T08:12:25.376Z,3.17
2018-09-20T08:13:03.493Z,2.50
2018-09-20T08:13:41.603Z,2.30
2018-09-20T08:14:19.483Z,2.13
2018-09-20T08:14:57.471Z,2.53
2018-09-20T08:15:35.435Z,2.77
2018-09-20T08:16:13.501Z,2.43
2018-09-20T08:16:51.419Z,2.30
2018-09-20T08:17:29.851Z,2.33
2018-09-20T08:18:07.881Z,2.20
2018-09-20T08:18:45.797Z,2.50
2018-09-20T08:19:23.743Z,2.23
2018-09-20T08:20:01.826Z,1.97
2018-09-20T08:20:39.845Z,2.63
2018-09-20T08:21:17.824Z,2.20
2018-09-20T08:21:56.524Z,2.30
2018-09-20T08:22:34.452Z,2.30
2018-09-20T08:23:12.428Z,2.10
2018-09-20T08:23:50.433Z,2.10
2018-09-20T08:24:28.476Z,2.30
2018-09-20T08:25:06.471Z,2.40
2018-09-20T08:25:44.416Z,2.30
2018-09-20T08:26:22.317Z,1.97
2018-09-20T08:27:00.405Z,2.20
2018-09-20T08:27:38.393Z,2.10
2018-09-20T08:28:16.384Z,2.10
2018-09-20T08:28:55.122Z,2.13
2018-09-20T08:29:33.255Z,2.00